Time;durP1;ratioP1;P1;durP2;ratioP2;P2;SDS_P1;SDS_P2;PMS_P1;PMS_P2;Temp;Humidity;BMP_temperature;BMP_pressure;BME280_temperature;BME280_humidity;BME280_pressure;Samples;Min_cycle;Max_cycle;Signal;HPM_P1;HPM_P2
2022/06/29 00:00:24;;;;;;;8.98;7.00;;;20.30;99.90;;;;;;5074714;28;20032;-56
2022/06/29 00:02:51;;;;;;;9.95;7.63;;;20.30;99.90;;;;;;5074391;28;20115;-56
2022/06/29 00:05:21;;;;;;;10.10;7.63;;;20.30;99.90;;;;;;5074754;28;20060;-57
2022/06/29 00:07:48;;;;;;;14.03;7.90;;;20.30;99.90;;;;;;5074709;28;20109;-56
2022/06/29 00:10:14;;;;;;;12.05;7.60;;;20.30;99.90;;;;;;5074816;28;20261;-57
2022/06/29 00:12:43;;;;;;;11.48;7.35;;;20.30;99.90;;;;;;5074365;28;20051;-57
2022/06/29 00:15:09;;;;;;;12.23;7.47;;;20.30;99.90;;;;;;5074711;28;20040;-57
2022/06/29 00:17:35;;;;;;;12.65;6.82;;;20.30;99.90;;;;;;5074578;28;20059;-57
2022/06/29 00:20:03;;;;;;;11.52;7.97;;;20.30;99.90;;;;;;5074646;28;20417;-57
2022/06/29 00:22:29;;;;;;;9.50;7.13;;;20.30;99.90;;;;;;5073980;28;20032;-57
2022/06/29 00:24:55;;;;;;;9.10;7.00;;;20.30;99.90;;;;;;5074096;28;20074;-57
2022/06/29 00:27:22;;;;;;;11.48;7.63;;;20.20;99.90;;;;;;5074399;28;20048;-57
2022/06/29 00:29:49;;;;;;;10.75;7.07;;;20.10;99.90;;;;;;5074457;28;20504;-57
2022/06/29 00:32:15;;;;;;;18.38;8.23;;;20.10;99.90;;;;;;5074659;28;20107;-57
2022/06/29 00:34:41;;;;;;;11.38;7.55;;;20.10;99.90;;;;;;5074471;28;20401;-57
2022/06/29 00:37:07;;;;;;;14.93;7.80;;;20.00;99.90;;;;;;5074440;28;20037;-57
2022/06/29 00:39:33;;;;;;;9.00;7.28;;;20.00;99.90;;;;;;5074371;28;20032;-57
2022/06/29 00:42:00;;;;;;;13.45;7.28;;;20.00;99.90;;;;;;5074372;28;20097;-57
2022/06/29 00:44:26;;;;;;;7.70;6.88;;;20.00;99.90;;;;;;5074127;28;20547;-57
2022/06/29 00:46:57;;;;;;;13.23;7.50;;;19.90;99.90;;;;;;5074339;28;20063;-57
2022/06/29 00:49:25;;;;;;;11.15;7.63;;;20.00;99.90;;;;;;5074050;28;20032;-57
2022/06/29 00:52:14;;;;;;;8.63;7.65;;;20.00;99.90;;;;;;5074266;28;20494;-56
2022/06/29 00:55:00;;;;;;;11.65;7.85;;;19.80;99.90;;;;;;5074315;28;20025;-56
2022/06/29 00:57:28;;;;;;;11.85;7.70;;;19.70;99.90;;;;;;5074129;28;20036;-57
2022/06/29 00:59:59;;;;;;;12.00;7.65;;;19.70;99.90;;;;;;5074377;28;20116;-57
2022/06/29 01:02:34;;;;;;;22.45;9.18;;;19.70;99.90;;;;;;5074209;28;20449;-57
2022/06/29 01:05:01;;;;;;;13.43;7.88;;;19.80;99.90;;;;;;5074064;28;20036;-57
2022/06/29 01:07:29;;;;;;;16.40;8.63;;;19.80;99.90;;;;;;5074165;28;20033;-57
2022/06/29 01:09:55;;;;;;;9.93;7.45;;;19.80;99.90;;;;;;5074172;28;20025;-57
2022/06/29 01:12:22;;;;;;;10.75;7.93;;;19.80;99.90;;;;;;5073779;28;20052;-57
2022/06/29 01:14:50;;;;;;;12.63;8.43;;;19.90;99.90;;;;;;5074075;28;20100;-57
2022/06/29 01:17:16;;;;;;;12.23;8.80;;;19.90;99.90;;;;;;5073908;28;20032;-56
2022/06/29 01:19:43;;;;;;;12.77;8.30;;;19.90;99.90;;;;;;5073992;28;20032;-57
2022/06/29 01:22:19;;;;;;;12.65;9.02;;;19.80;99.90;;;;;;5073959;28;20204;-57
2022/06/29 01:24:46;;;;;;;13.77;9.30;;;19.90;99.90;;;;;;5073635;28;20032;-57
2022/06/29 01:27:13;;;;;;;15.63;9.70;;;19.90;99.90;;;;;;5074050;28;20213;-57
2022/06/29 01:29:39;;;;;;;17.83;10.43;;;20.00;99.90;;;;;;5073944;28;20025;-56
2022/06/29 01:32:06;;;;;;;19.58;12.07;;;20.00;99.90;;;;;;5073787;28;20115;-57
2022/06/29 01:34:32;;;;;;;21.58;12.50;;;20.00;99.90;;;;;;5074929;28;20105;-57
2022/06/29 01:36:59;;;;;;;18.55;11.40;;;20.00;99.90;;;;;;5077675;28;20092;-56
2022/06/29 01:39:26;;;;;;;15.13;10.15;;;20.00;99.90;;;;;;5077275;28;20024;-56
2022/06/29 01:41:52;;;;;;;14.70;10.02;;;20.00;99.90;;;;;;5077390;28;20028;-57
2022/06/29 01:44:19;;;;;;;13.32;9.18;;;20.00;99.90;;;;;;5077275;28;20028;-57
2022/06/29 01:46:45;;;;;;;15.10;9.63;;;19.90;99.90;;;;;;5077275;28;20139;-57
2022/06/29 01:49:11;;;;;;;16.30;10.50;;;19.90;99.90;;;;;;5077282;28;20064;-57
2022/06/29 01:51:37;;;;;;;14.80;11.07;;;19.90;99.90;;;;;;5077259;28;20125;-57
2022/06/29 01:54:03;;;;;;;15.32;12.07;;;19.90;99.90;;;;;;5077014;28;20502;-57
2022/06/29 01:56:29;;;;;;;19.08;10.90;;;19.90;99.90;;;;;;5077411;28;20044;-57
2022/06/29 01:58:55;;;;;;;14.05;9.60;;;19.80;99.90;;;;;;5077125;28;20474;-57
2022/06/29 02:01:21;;;;;;;13.57;9.65;;;19.80;99.90;;;;;;5076876;28;20028;-57
2022/06/29 02:03:47;;;;;;;12.20;8.73;;;19.80;99.90;;;;;;5076967;28;20054;-57
2022/06/29 02:06:13;;;;;;;19.73;9.73;;;19.80;99.90;;;;;;5076949;28;20112;-57
2022/06/29 02:08:39;;;;;;;11.95;8.75;;;19.70;99.90;;;;;;5076921;28;20108;-57
2022/06/29 02:11:05;;;;;;;14.63;9.63;;;19.60;99.90;;;;;;5077237;28;20484;-57
2022/06/29 02:13:31;;;;;;;13.38;9.65;;;19.60;99.90;;;;;;5076642;28;20397;-57
2022/06/29 02:15:57;;;;;;;15.27;11.00;;;19.60;99.90;;;;;;5076710;28;20120;-57
2022/06/29 02:18:23;;;;;;;16.45;10.52;;;19.60;99.90;;;;;;5076888;28;20085;-57
2022/06/29 02:20:49;;;;;;;15.52;10.45;;;19.60;99.90;;;;;;5109259;28;20111;-57
2022/06/29 02:23:15;;;;;;;15.38;9.85;;;19.60;99.90;;;;;;5076714;28;20177;-57
2022/06/29 02:25:41;;;;;;;14.32;10.25;;;19.60;99.90;;;;;;5076489;28;20064;-57
2022/06/29 02:28:07;;;;;;;18.67;12.27;;;19.60;99.90;;;;;;5076674;28;20031;-57
2022/06/29 02:36:02;;;;;;;15.45;11.98;;;19.50;99.90;;;;;;5076395;28;20533;-57
2022/06/29 02:38:28;;;;;;;17.20;11.90;;;19.50;99.90;;;;;;5076633;28;20044;-56
2022/06/29 02:40:54;;;;;;;17.95;11.32;;;19.50;99.90;;;;;;5076482;28;20053;-57
2022/06/29 02:43:20;;;;;;;16.33;11.10;;;19.40;99.90;;;;;;5076196;28;20029;-57
2022/06/29 02:45:46;;;;;;;19.85;10.80;;;19.40;99.90;;;;;;5075564;28;20024;-57
2022/06/29 02:48:12;;;;;;;13.90;10.75;;;19.40;99.90;;;;;;5076235;28;20035;-57
2022/06/29 02:50:38;;;;;;;15.48;9.82;;;19.40;99.90;;;;;;5076232;28;20037;-57
2022/06/29 02:53:03;;;;;;;14.75;10.13;;;19.40;99.90;;;;;;5076184;28;20402;-57
2022/06/29 02:55:30;;;;;;;14.30;9.75;;;19.40;99.90;;;;;;5076062;28;20111;-57
2022/06/29 02:57:56;;;;;;;19.30;10.85;;;19.40;99.90;;;;;;5075912;28;20028;-56
2022/06/29 03:00:21;;;;;;;14.32;9.52;;;19.40;99.90;;;;;;5075937;28;20371;-57
2022/06/29 03:02:47;;;;;;;15.15;9.63;;;19.50;99.90;;;;;;5075842;28;20040;-57
2022/06/29 03:05:13;;;;;;;17.58;11.27;;;19.50;99.90;;;;;;5075779;28;20028;-57
2022/06/29 03:07:39;;;;;;;21.77;12.38;;;19.50;99.90;;;;;;5075816;28;20107;-57
2022/06/29 03:10:05;;;;;;;16.40;12.20;;;19.50;99.90;;;;;;5075737;28;20069;-57
2022/06/29 03:12:31;;;;;;;17.00;12.50;;;19.40;99.90;;;;;;5075485;28;20040;-57
2022/06/29 03:14:57;;;;;;;16.50;9.65;;;19.30;99.90;;;;;;5075596;28;20042;-56
2022/06/29 03:17:23;;;;;;;12.52;9.40;;;19.30;99.90;;;;;;5075600;28;20585;-57
2022/06/29 03:19:49;;;;;;;15.90;9.93;;;19.20;99.90;;;;;;5075512;28;20044;-56
2022/06/29 03:22:15;;;;;;;15.73;9.60;;;19.20;99.90;;;;;;5075450;28;20044;-57
2022/06/29 03:24:41;;;;;;;22.33;11.10;;;19.30;99.90;;;;;;5075265;28;20036;-56
2022/06/29 03:27:06;;;;;;;15.25;9.98;;;19.30;99.90;;;;;;5075143;28;20051;-57
2022/06/29 03:29:32;;;;;;;16.00;10.60;;;19.40;99.90;;;;;;5075353;28;20534;-57
2022/06/29 03:31:58;;;;;;;15.60;11.45;;;19.50;99.90;;;;;;5075273;28;20035;-57
2022/06/29 03:34:24;;;;;;;19.30;11.45;;;19.50;99.90;;;;;;5075172;28;20035;-57
2022/06/29 03:36:50;;;;;;;19.73;11.50;;;19.50;99.90;;;;;;5075312;28;20036;-57
2022/06/29 03:39:16;;;;;;;20.35;12.27;;;19.50;99.90;;;;;;5075105;28;20109;-57
2022/06/29 03:41:42;;;;;;;14.82;10.90;;;19.60;99.90;;;;;;5075244;28;20025;-57
2022/06/29 03:44:08;;;;;;;16.08;10.23;;;19.50;99.90;;;;;;5075053;28;20043;-57
2022/06/29 03:46:34;;;;;;;15.15;9.75;;;19.50;99.90;;;;;;5074820;28;20029;-57
2022/06/29 03:49:00;;;;;;;13.95;9.70;;;19.60;99.90;;;;;;5075051;28;20021;-56
2022/06/29 03:51:26;;;;;;;11.30;9.60;;;19.60;99.90;;;;;;5074937;28;20413;-58
2022/06/29 03:53:52;;;;;;;14.55;9.75;;;19.60;99.90;;;;;;5074748;28;20028;-57
2022/06/29 03:56:18;;;;;;;13.93;9.43;;;19.60;99.90;;;;;;5075065;28;20031;-57
2022/06/29 03:58:44;;;;;;;13.40;10.23;;;19.70;99.90;;;;;;5073858;28;20154;-57
2022/06/29 04:01:10;;;;;;;13.25;9.60;;;19.70;99.90;;;;;;5074790;28;20497;-57
2022/06/29 04:03:36;;;;;;;14.07;9.90;;;19.70;99.90;;;;;;5074755;28;20466;-57
2022/06/29 04:06:02;;;;;;;17.75;10.43;;;19.70;99.90;;;;;;5074680;28;20074;-57
2022/06/29 04:08:28;;;;;;;14.50;9.88;;;19.80;99.90;;;;;;5074581;28;20024;-57
2022/06/29 04:10:54;;;;;;;15.68;10.30;;;19.80;99.90;;;;;;5074761;28;20039;-57
2022/06/29 04:13:22;;;;;;;13.88;9.35;;;19.90;99.90;;;;;;5074392;28;20406;-57
2022/06/29 04:15:49;;;;;;;11.50;8.93;;;19.90;99.90;;;;;;5074525;28;20035;-57
2022/06/29 04:18:15;;;;;;;9.88;8.88;;;20.00;99.90;;;;;;5074689;28;20028;-57
2022/06/29 04:23:25;;;;;;;18.33;10.30;;;20.10;99.90;;;;;;5074412;28;20032;-57
2022/06/29 04:25:51;;;;;;;23.90;10.65;;;20.20;99.90;;;;;;5074692;28;20033;-57
2022/06/29 04:28:17;;;;;;;13.13;9.90;;;20.20;99.90;;;;;;5074657;28;20387;-57
2022/06/29 04:30:43;;;;;;;15.20;9.85;;;20.30;99.90;;;;;;5074442;28;20126;-57
2022/06/29 04:33:09;;;;;;;16.73;9.95;;;20.30;99.90;;;;;;5074496;28;20040;-57
2022/06/29 04:35:35;;;;;;;16.02;9.48;;;20.50;99.90;;;;;;5074304;28;20401;-57
2022/06/29 04:38:01;;;;;;;20.25;10.48;;;20.50;99.90;;;;;;5074293;28;20037;-57
2022/06/29 04:40:26;;;;;;;16.60;10.20;;;20.60;99.90;;;;;;5074412;28;20032;-57
2022/06/29 04:42:52;;;;;;;19.17;10.80;;;20.80;99.90;;;;;;5074265;28;20040;-57
2022/06/29 04:48:03;;;;;;;18.88;11.48;;;20.90;99.90;;;;;;5074255;28;20059;-57
2022/06/29 04:50:30;;;;;;;15.45;10.23;;;21.00;99.90;;;;;;5074295;28;20029;-57
2022/06/29 04:52:55;;;;;;;16.08;10.50;;;21.10;99.90;;;;;;5074342;28;20040;-57
2022/06/29 04:55:23;;;;;;;15.30;10.77;;;21.20;99.90;;;;;;5074106;28;20032;-57
2022/06/29 04:57:50;;;;;;;17.35;9.35;;;21.30;99.90;;;;;;5074144;28;20036;-57
2022/06/29 05:00:16;;;;;;;18.42;12.40;;;21.40;99.90;;;;;;5074190;28;20029;-57
2022/06/29 05:02:42;;;;;;;26.42;11.48;;;21.60;99.90;;;;;;5074149;28;20029;-57
2022/06/29 05:05:09;;;;;;;21.27;9.77;;;21.70;99.90;;;;;;5074004;28;20033;-57
2022/06/29 05:07:35;;;;;;;20.92;10.68;;;21.80;99.90;;;;;;5074043;28;20033;-57
2022/06/29 05:10:01;;;;;;;34.58;11.82;;;21.80;99.90;;;;;;5076134;28;20055;-57
2022/06/29 05:12:27;;;;;;;20.17;10.82;;;21.90;99.90;;;;;;5077910;28;20072;-57
2022/06/29 05:14:52;;;;;;;19.75;10.95;;;21.90;99.90;;;;;;5077861;28;20035;-57
2022/06/29 05:17:18;;;;;;;24.77;11.48;;;22.00;99.90;;;;;;5077792;28;20378;-57
2022/06/29 05:19:44;;;;;;;27.35;11.80;;;22.10;99.90;;;;;;5077792;28;20349;-57
2022/06/29 05:22:10;;;;;;;22.17;11.13;;;22.20;99.90;;;;;;5077717;28;20036;-57
2022/06/29 05:24:36;;;;;;;22.40;10.63;;;22.30;99.90;;;;;;5080332;28;20027;-57
2022/06/29 05:27:02;;;;;;;23.85;11.30;;;22.40;99.90;;;;;;5097714;28;20107;-57
2022/06/29 05:29:28;;;;;;;24.25;10.95;;;22.40;99.90;;;;;;5092872;28;20286;-57
2022/06/29 05:31:54;;;;;;;27.88;11.05;;;22.50;99.90;;;;;;5077680;28;20035;-57
2022/06/29 05:34:20;;;;;;;12.07;9.20;;;22.70;99.90;;;;;;5092896;28;20389;-57
2022/06/29 05:36:46;;;;;;;22.88;10.73;;;22.80;99.90;;;;;;5096957;28;20020;-57
2022/06/29 05:39:12;;;;;;;22.13;9.50;;;22.80;99.90;;;;;;5096772;28;20032;-57
2022/06/29 05:41:38;;;;;;;16.52;9.70;;;23.00;99.90;;;;;;5097394;28;20096;-57
2022/06/29 05:44:04;;;;;;;27.38;11.30;;;23.00;99.90;;;;;;5097340;28;20081;-57
2022/06/29 05:46:33;;;;;;;28.83;10.40;;;23.20;99.90;;;;;;5097365;28;20032;-57
2022/06/29 05:48:59;;;;;;;27.48;9.90;;;23.30;99.90;;;;;;5097247;28;20093;-57
2022/06/29 05:51:25;;;;;;;17.23;10.13;;;23.40;99.90;;;;;;5097490;28;20108;-57
2022/06/29 05:53:51;;;;;;;22.13;9.95;;;23.50;99.90;;;;;;5097455;28;20027;-57
2022/06/29 05:56:17;;;;;;;23.48;9.65;;;23.60;99.90;;;;;;5096926;28;20051;-57
2022/06/29 05:58:43;;;;;;;18.92;9.80;;;23.70;99.90;;;;;;5097471;28;20053;-57
2022/06/29 06:01:09;;;;;;;21.77;9.38;;;23.90;99.90;;;;;;5097374;28;20110;-57
2022/06/29 06:03:36;;;;;;;23.45;10.38;;;24.00;99.90;;;;;;5097060;28;20036;-57
2022/06/29 06:06:03;;;;;;;24.05;10.15;;;24.10;99.90;;;;;;5097189;28;20027;-57
2022/06/29 06:08:28;;;;;;;22.20;10.13;;;24.30;99.90;;;;;;5094877;28;20031;-57
2022/06/29 06:10:57;;;;;;;28.25;11.25;;;24.50;99.90;;;;;;5097001;28;20031;-57
2022/06/29 06:13:23;;;;;;;25.08;11.80;;;24.60;99.90;;;;;;5096636;28;20531;-57
2022/06/29 06:15:49;;;;;;;19.63;10.23;;;24.70;99.90;;;;;;5096879;28;20082;-57
2022/06/29 06:18:15;;;;;;;22.23;10.50;;;24.80;99.90;;;;;;5096844;28;20059;-57
2022/06/29 06:20:41;;;;;;;26.10;9.63;;;25.00;99.90;;;;;;5095736;28;20085;-57
2022/06/29 06:23:08;;;;;;;26.55;9.90;;;25.10;99.90;;;;;;5096283;28;20107;-57
2022/06/29 06:25:34;;;;;;;22.80;9.48;;;25.20;99.90;;;;;;5095995;28;20070;-57
2022/06/29 06:28:05;;;;;;;22.20;9.45;;;25.40;99.90;;;;;;5096751;28;20024;-57
2022/06/29 06:30:31;;;;;;;40.67;10.90;;;25.50;99.10;;;;;;5096787;28;20157;-57
2022/06/29 06:32:57;;;;;;;26.00;11.32;;;25.70;99.00;;;;;;5096574;28;20056;-57
2022/06/29 06:35:23;;;;;;;31.15;10.45;;;25.90;98.90;;;;;;5095775;28;20491;-57
2022/06/29 06:37:51;;;;;;;35.63;12.27;;;26.10;99.10;;;;;;5096385;28;20031;-57
2022/06/29 06:43:02;;;;;;;27.52;10.48;;;26.50;95.90;;;;;;5096240;28;20078;-57
2022/06/29 06:45:28;;;;;;;26.05;10.85;;;26.70;93.80;;;;;;5096004;28;20035;-57
2022/06/29 06:47:54;;;;;;;37.95;11.48;;;26.90;92.50;;;;;;5096365;28;20031;-57
2022/06/29 06:50:20;;;;;;;22.50;8.27;;;27.00;91.90;;;;;;5096172;28;20032;-57
2022/06/29 06:52:46;;;;;;;27.00;7.45;;;27.20;90.10;;;;;;5096164;28;20029;-57
2022/06/29 06:55:13;;;;;;;23.13;8.10;;;27.50;92.30;;;;;;5096991;28;20028;-57
2022/06/29 06:57:39;;;;;;;19.75;6.53;;;27.70;91.60;;;;;;5096886;28;20625;-57
2022/06/29 07:00:06;;;;;;;10.80;5.57;;;27.90;84.70;;;;;;5096754;28;20056;-57
2022/06/29 07:02:32;;;;;;;16.92;5.63;;;28.20;69.30;;;;;;5096087;28;20035;-57
2022/06/29 07:04:58;;;;;;;20.90;5.93;;;28.50;66.60;;;;;;5095901;28;20028;-58
2022/06/29 07:07:24;;;;;;;9.07;4.50;;;28.70;61.60;;;;;;5094008;28;20032;-57
2022/06/29 07:09:50;;;;;;;8.60;4.07;;;29.00;67.10;;;;;;5095310;28;20036;-57
2022/06/29 07:12:16;;;;;;;12.25;5.22;;;29.30;63.20;;;;;;5093516;28;20061;-57
2022/06/29 07:14:42;;;;;;;13.75;5.10;;;29.50;58.90;;;;;;5095582;28;20461;-57
2022/06/29 07:17:07;;;;;;;16.95;4.93;;;29.80;60.00;;;;;;5096629;28;20150;-57
2022/06/29 07:19:33;;;;;;;16.70;4.97;;;30.10;56.60;;;;;;5096287;28;20036;-57
2022/06/29 07:21:59;;;;;;;17.85;6.25;;;30.30;56.60;;;;;;5096407;28;20036;-58
2022/06/29 07:24:25;;;;;;;13.75;4.32;;;30.50;52.80;;;;;;5096303;28;20028;-57
2022/06/29 07:26:51;;;;;;;8.10;3.35;;;30.70;52.20;;;;;;5096103;28;20486;-58
2022/06/29 07:29:17;;;;;;;15.60;3.55;;;30.70;51.20;;;;;;5096190;28;20051;-58
2022/06/29 07:31:43;;;;;;;8.93;3.45;;;31.10;52.40;;;;;;5096005;28;20103;-57
2022/06/29 07:34:09;;;;;;;8.93;3.72;;;31.40;54.00;;;;;;5095954;28;20024;-58
2022/06/29 07:36:35;;;;;;;10.77;3.95;;;31.70;52.50;;;;;;5096084;28;20453;-58
2022/06/29 07:39:01;;;;;;;8.85;3.47;;;32.00;49.20;;;;;;5096462;28;20027;-58
2022/06/29 07:41:26;;;;;;;11.57;3.65;;;31.80;46.50;;;;;;5091846;28;20012;-58
2022/06/29 07:43:53;;;;;;;10.68;4.35;;;32.00;49.50;;;;;;5094191;28;20035;-58
2022/06/29 07:46:20;;;;;;;14.50;3.92;;;32.40;47.40;;;;;;5094474;28;20035;-58
2022/06/29 07:48:46;;;;;;;9.07;3.78;;;32.70;48.50;;;;;;5093227;28;20028;-58
2022/06/29 07:51:12;;;;;;;13.05;4.75;;;32.60;46.50;;;;;;5091975;28;20028;-58
2022/06/29 07:53:37;;;;;;;17.88;5.40;;;32.90;46.40;;;;;;5095143;28;20081;-58
2022/06/29 07:56:03;;;;;;;10.95;4.82;;;32.90;46.10;;;;;;5095048;28;20373;-58
2022/06/29 07:58:29;;;;;;;6.10;3.05;;;32.70;46.00;;;;;;5093853;28;20700;-57
2022/06/29 08:01:07;;;;;;;9.05;3.28;;;32.70;44.60;;;;;;5095835;28;20032;-58
2022/06/29 08:03:33;;;;;;;4.97;3.53;;;32.20;44.70;;;;;;5094946;28;20040;-58
2022/06/29 08:06:00;;;;;;;5.28;3.10;;;32.70;44.80;;;;;;5090846;28;20028;-58
2022/06/29 08:08:29;;;;;;;9.27;3.53;;;32.70;44.00;;;;;;5080862;28;20022;-58
2022/06/29 08:10:55;;;;;;;13.85;4.35;;;32.70;44.30;;;;;;5086966;28;20031;-58
2022/06/29 08:13:22;;;;;;;7.72;3.88;;;33.50;45.00;;;;;;5089467;28;20051;-58
2022/06/29 08:15:48;;;;;;;6.22;3.13;;;33.60;42.70;;;;;;5092416;28;20059;-57
2022/06/29 08:18:15;;;;;;;8.60;3.95;;;34.00;44.60;;;;;;5093311;28;20036;-57
2022/06/29 08:20:42;;;;;;;10.88;3.65;;;34.40;43.40;;;;;;5091642;28;20064;-57
2022/06/29 08:23:09;;;;;;;7.28;3.85;;;33.80;41.30;;;;;;5094086;28;20032;-57
2022/06/29 08:25:36;;;;;;;13.60;4.20;;;33.90;43.60;;;;;;5092579;28;20036;-57
2022/06/29 08:28:02;;;;;;;12.32;4.15;;;34.40;44.20;;;;;;5093983;28;20024;-57
2022/06/29 08:30:28;;;;;;;7.25;3.20;;;34.60;44.20;;;;;;5087616;28;20067;-57
2022/06/29 08:32:55;;;;;;;5.65;3.05;;;34.70;41.50;;;;;;5090987;28;20016;-57
2022/06/29 08:35:21;;;;;;;6.28;2.92;;;34.90;42.20;;;;;;5090940;28;20032;-57
2022/06/29 08:37:47;;;;;;;10.55;4.18;;;35.00;41.60;;;;;;5089083;28;20050;-57
2022/06/29 08:40:17;;;;;;;10.90;3.83;;;34.80;41.80;;;;;;5092802;28;20474;-57
2022/06/29 08:42:45;;;;;;;6.28;3.28;;;34.70;41.60;;;;;;5089991;28;20449;-57
2022/06/29 08:45:12;;;;;;;10.07;3.63;;;34.80;41.20;;;;;;5093348;28;20025;-57
2022/06/29 08:47:41;;;;;;;27.75;6.60;;;34.80;42.80;;;;;;5095455;28;20024;-57
2022/06/29 08:50:09;;;;;;;8.68;4.10;;;34.70;41.50;;;;;;5097325;28;20081;-57
2022/06/29 08:52:36;;;;;;;5.60;3.80;;;35.10;42.40;;;;;;5091435;28;20031;-57
2022/06/29 08:55:08;;;;;;;16.13;3.42;;;35.40;41.00;;;;;;5095443;28;20022;-57
2022/06/29 08:57:38;;;;;;;16.85;5.28;;;34.40;40.10;;;;;;5093474;28;20462;-57
2022/06/29 09:00:07;;;;;;;7.88;3.78;;;34.80;41.10;;;;;;5094615;28;20036;-57
2022/06/29 09:02:33;;;;;;;8.55;3.70;;;35.30;42.00;;;;;;5077637;28;20033;-57
2022/06/29 09:04:59;;;;;;;10.80;3.10;;;35.40;39.00;;;;;;5090055;28;20031;-57
2022/06/29 09:07:26;;;;;;;6.55;3.33;;;35.00;40.30;;;;;;5097709;28;20024;-56
2022/06/29 09:10:11;;;;;;;9.85;3.60;;;34.70;40.00;;;;;;5098174;28;20461;-57
2022/06/29 09:12:38;;;;;;;10.23;4.00;;;35.00;40.50;;;;;;5096854;28;20044;-57
2022/06/29 09:15:07;;;;;;;11.20;4.00;;;35.30;40.20;;;;;;5097528;28;20048;-57
2022/06/29 09:17:35;;;;;;;8.47;4.00;;;35.40;40.40;;;;;;5098355;28;20481;-57
2022/06/29 09:20:02;;;;;;;12.23;4.32;;;35.90;39.90;;;;;;5098624;28;20288;-57
2022/06/29 09:22:29;;;;;;;6.32;3.53;;;35.60;40.00;;;;;;5098098;28;20389;-57
2022/06/29 09:24:55;;;;;;;15.77;3.65;;;35.90;40.80;;;;;;5098738;28;20040;-57
2022/06/29 09:27:25;;;;;;;10.32;3.38;;;35.70;39.40;;;;;;5096647;28;20542;-57
2022/06/29 09:29:51;;;;;;;6.13;3.00;;;35.40;39.70;;;;;;5097152;28;20027;-57
2022/06/29 09:32:18;;;;;;;8.13;3.22;;;35.40;38.50;;;;;;5098062;28;20024;-56
2022/06/29 09:34:52;;;;;;;6.60;2.83;;;35.70;37.90;;;;;;5098210;28;20458;-57
2022/06/29 09:37:20;;;;;;;9.35;3.25;;;34.90;38.80;;;;;;5077687;28;20119;-57
2022/06/29 09:39:53;;;;;;;7.90;3.00;;;34.80;38.50;;;;;;5096677;28;20461;-57
2022/06/29 09:42:27;;;;;;;10.93;3.60;;;35.10;37.50;;;;;;5097114;28;20032;-57
2022/06/29 09:44:54;;;;;;;11.52;3.85;;;35.40;38.50;;;;;;5096474;28;20032;-57
2022/06/29 09:47:21;;;;;;;11.25;3.33;;;35.60;39.30;;;;;;5096989;28;20485;-57
2022/06/29 09:50:02;;;;;;;18.17;4.13;;;35.90;39.40;;;;;;5096544;28;20018;-57
2022/06/29 09:52:28;;;;;;;4.00;2.60;;;36.40;39.50;;;;;;5095003;28;20049;-57
2022/06/29 09:54:54;;;;;;;7.93;4.03;;;36.00;37.80;;;;;;5097752;28;20036;-56
2022/06/29 09:57:23;;;;;;;11.15;3.55;;;36.50;38.20;;;;;;5097421;28;20040;-57
2022/06/29 10:02:59;;;;;;;10.77;4.00;;;37.30;36.70;;;;;;5109698;28;20047;-57
2022/06/29 10:05:54;;;;;;;10.88;3.97;;;35.90;37.10;;;;;;5096753;28;20393;-57
2022/06/29 10:08:11;;;;;;;13.20;3.90;;;36.40;38.80;;;;;;5097140;28;20493;-57
2022/06/29 10:10:38;;;;;;;25.50;4.43;;;37.30;39.00;;;;;;5096162;28;20292;-57
2022/06/29 10:13:42;;;;;;;18.30;3.80;;;37.40;37.50;;;;;;5096535;28;20139;-57
2022/06/29 10:16:17;;;;;;;13.13;3.65;;;37.80;37.60;;;;;;5096967;28;20024;-57
2022/06/29 10:19:11;;;;;;;10.10;3.08;;;38.20;37.20;;;;;;5096670;28;20028;-57
2022/06/29 10:21:38;;;;;;;6.20;2.97;;;37.90;37.20;;;;;;5096354;28;20040;-57
2022/06/29 10:24:08;;;;;;;14.20;5.72;;;37.90;36.10;;;;;;5096076;28;20032;-57
2022/06/29 10:29:05;;;;;;;4.13;3.70;;;35.60;37.90;;;;;;5076583;28;20029;-57
2022/06/29 10:31:50;;;;;;;6.88;3.58;;;36.70;38.00;;;;;;5090763;28;20417;-57
2022/06/29 10:34:31;;;;;;;8.35;2.80;;;37.30;38.30;;;;;;5096345;28;20035;-57
2022/06/29 10:37:05;;;;;;;5.25;3.47;;;37.90;38.20;;;;;;5096426;28;20024;-57
2022/06/29 10:39:47;;;;;;;11.80;3.75;;;38.10;36.30;;;;;;5096323;28;20367;-57
2022/06/29 10:45:25;;;;;;;9.95;4.18;;;38.40;36.60;;;;;;5094225;28;20024;-57
2022/06/29 10:47:54;;;;;;;13.85;4.50;;;38.50;34.30;;;;;;5096387;28;20024;-57
2022/06/29 10:50:24;;;;;;;14.43;3.58;;;37.30;33.80;;;;;;5096270;28;20060;-57
2022/06/29 10:52:58;;;;;;;10.82;3.00;;;36.60;34.60;;;;;;5096092;28;20035;-57
2022/06/29 10:55:30;;;;;;;17.70;5.25;;;36.60;35.40;;;;;;5095590;28;20024;-57
2022/06/29 10:57:57;;;;;;;5.93;3.35;;;36.70;35.40;;;;;;5095446;28;20016;-57
2022/06/29 11:00:24;;;;;;;6.25;2.83;;;36.70;35.80;;;;;;5095707;28;20084;-57
2022/06/29 11:02:51;;;;;;;7.82;4.22;;;36.70;36.40;;;;;;5095860;28;20455;-57
2022/06/29 11:05:17;;;;;;;15.32;4.50;;;36.60;35.00;;;;;;5095720;28;20024;-57
2022/06/29 11:13:29;;;;;;;6.43;3.08;;;38.10;32.90;;;;;;5095454;28;20048;-57
2022/06/29 11:15:58;;;;;;;7.15;3.00;;;36.80;33.10;;;;;;5095634;28;20032;-57
2022/06/29 11:18:30;;;;;;;4.07;2.72;;;37.00;34.40;;;;;;5095597;28;20388;-57
2022/06/29 11:21:02;;;;;;;4.07;2.90;;;37.00;33.80;;;;;;5095424;28;20052;-57
2022/06/29 11:23:32;;;;;;;7.95;3.63;;;37.30;36.40;;;;;;5095001;28;20094;-57
2022/06/29 11:25:58;;;;;;;13.18;3.92;;;37.60;32.60;;;;;;5095114;28;20039;-57
2022/06/29 11:28:29;;;;;;;4.78;2.70;;;36.90;33.70;;;;;;5095324;28;20032;-57
2022/06/29 11:31:08;;;;;;;11.40;4.60;;;36.80;33.40;;;;;;5095503;28;20051;-57
2022/06/29 11:33:46;;;;;;;7.30;2.90;;;37.20;33.90;;;;;;5095621;28;20106;-57
2022/06/29 11:36:18;;;;;;;5.68;2.60;;;37.60;33.50;;;;;;5095074;28;20036;-57
2022/06/29 11:38:52;;;;;;;9.43;3.38;;;38.20;34.10;;;;;;5095520;28;20035;-56
2022/06/29 11:41:20;;;;;;;5.68;3.20;;;38.40;33.40;;;;;;5095398;28;20035;-57
2022/06/29 11:43:59;;;;;;;11.75;3.90;;;38.10;33.70;;;;;;5095257;28;20036;-57
2022/06/29 11:46:27;;;;;;;9.40;3.30;;;37.70;32.50;;;;;;5093890;28;20040;-57
2022/06/29 11:51:59;;;;;;;4.32;3.10;;;37.90;31.50;;;;;;5095273;28;20031;-57
2022/06/29 11:54:37;;;;;;;6.25;3.20;;;37.30;32.70;;;;;;5094038;28;20028;-57
2022/06/29 11:57:05;;;;;;;6.97;2.80;;;37.70;32.90;;;;;;5095135;28;20030;-57
2022/06/29 11:59:32;;;;;;;7.80;3.15;;;37.60;31.80;;;;;;5094745;28;20024;-57
2022/06/29 12:01:59;;;;;;;10.18;3.70;;;37.30;32.10;;;;;;5095242;28;20048;-57
2022/06/29 12:04:28;;;;;;;9.98;4.07;;;37.10;32.80;;;;;;5094784;28;20400;-57
2022/06/29 12:07:02;;;;;;;6.85;2.95;;;37.30;33.60;;;;;;5094875;28;20074;-57
2022/06/29 12:09:28;;;;;;;8.35;3.47;;;37.80;32.60;;;;;;5092735;28;20027;-57
2022/06/29 12:11:54;;;;;;;10.32;3.70;;;38.00;32.70;;;;;;5094670;28;20406;-57
2022/06/29 12:14:20;;;;;;;15.93;4.25;;;38.40;32.40;;;;;;5094510;28;20028;-57
2022/06/29 12:16:47;;;;;;;17.58;4.80;;;38.50;32.30;;;;;;5094569;28;20020;-57
2022/06/29 12:19:12;;;;;;;7.30;3.40;;;38.80;31.00;;;;;;5093694;28;20038;-57
2022/06/29 12:21:38;;;;;;;7.40;3.20;;;37.90;30.70;;;;;;5094515;28;20107;-57
2022/06/29 12:24:04;;;;;;;12.73;3.63;;;38.40;31.20;;;;;;5093089;28;20441;-57
2022/06/29 12:26:30;;;;;;;7.78;3.00;;;38.50;33.10;;;;;;5094912;28;20088;-57
2022/06/29 12:28:56;;;;;;;7.50;2.83;;;39.00;32.80;;;;;;5094680;28;20020;-57
2022/06/29 12:31:22;;;;;;;14.68;4.15;;;39.10;30.90;;;;;;5094523;28;20062;-57
2022/06/29 12:33:49;;;;;;;10.15;3.08;;;38.70;30.20;;;;;;5094368;28;20075;-57
2022/06/29 12:36:15;;;;;;;13.82;3.13;;;39.20;31.70;;;;;;5094440;28;20489;-57
2022/06/29 12:38:43;;;;;;;7.43;3.17;;;39.00;30.80;;;;;;5094322;28;20035;-57
2022/06/29 12:41:09;;;;;;;8.73;3.30;;;38.80;29.00;;;;;;5094438;28;20058;-57
2022/06/29 12:43:35;;;;;;;7.68;2.58;;;38.60;28.60;;;;;;5094206;28;20039;-57
2022/06/29 12:46:01;;;;;;;11.23;2.50;;;38.80;30.00;;;;;;5094054;28;20024;-57
2022/06/29 12:48:27;;;;;;;10.77;2.60;;;39.20;30.60;;;;;;5094361;28;20043;-57
2022/06/29 12:50:54;;;;;;;15.35;3.05;;;39.30;29.70;;;;;;5094621;28;20028;-57
2022/06/29 12:53:20;;;;;;;10.68;2.90;;;39.20;29.80;;;;;;5094207;28;20034;-57
2022/06/29 12:55:46;;;;;;;9.32;3.22;;;39.40;29.70;;;;;;5094191;28;20024;-57
2022/06/29 12:58:12;;;;;;;4.93;2.50;;;39.10;29.20;;;;;;5094331;28;20036;-57
2022/06/29 13:00:38;;;;;;;17.20;4.95;;;39.30;29.50;;;;;;5094133;28;20032;-57
2022/06/29 13:03:04;;;;;;;6.15;2.28;;;39.20;29.90;;;;;;5094130;28;20024;-57
2022/06/29 13:05:30;;;;;;;10.27;3.15;;;39.30;29.70;;;;;;5094376;28;20432;-57
2022/06/29 13:07:56;;;;;;;15.40;6.72;;;39.10;29.60;;;;;;5094066;28;20077;-57
2022/06/29 13:10:22;;;;;;;5.75;2.22;;;38.60;29.40;;;;;;5094045;28;20306;-57